Time;durP1;ratioP1;P1;durP2;ratioP2;P2;SDS_P1;SDS_P2;PMS_P1;PMS_P2;Temp;Humidity;BMP_temperature;BMP_pressure;BME280_temperature;BME280_humidity;BME280_pressure;Samples;Min_cycle;Max_cycle;Signal;HPM_P1;HPM_P2
2021/04/24 00:00:02;;;;;;;2.22;1.00;;;;;;;;;;5039799;28;20172;-75
2021/04/24 00:02:28;;;;;;;1.40;0.70;;;;;;;;;;5064283;28;20028;-75
2021/04/24 00:04:53;;;;;;;2.40;0.90;;;;;;;;;;5093175;28;20111;-75
2021/04/24 00:07:19;;;;;;;2.40;0.80;;;;;;;;;;5094187;28;20055;-75
2021/04/24 00:09:45;;;;;;;1.33;0.68;;;;;;;;;;5093101;28;20036;-75
2021/04/24 00:12:11;;;;;;;1.77;0.80;;;;;;;;;;5093120;28;20024;-75
2021/04/24 00:14:36;;;;;;;2.03;0.90;;;;;;;;;;5075996;28;20036;-75
2021/04/24 00:17:03;;;;;;;0.90;0.60;;;;;;;;;;5093155;28;20062;-75
2021/04/24 00:19:28;;;;;;;;;;;;;;;;;;5059929;28;20449;-75
2021/04/24 00:21:53;;;;;;;1.60;0.73;;;;;;;;;;5059198;28;19908;-75
2021/04/24 00:24:19;;;;;;;1.70;0.90;;;;;;;;;;5092897;28;20079;-75
2021/04/24 00:26:44;;;;;;;2.17;0.80;;;;;;;;;;5089246;28;20110;-75
2021/04/24 00:29:09;;;;;;;2.57;1.00;;;;;;;;;;5055773;28;20064;-75
2021/04/24 00:31:35;;;;;;;2.47;0.70;;;;;;;;;;5072908;28;20428;-75
2021/04/24 00:34:00;;;;;;;2.53;1.00;;;;;;;;;;5072463;28;20068;-75
2021/04/24 00:36:25;;;;;;;1.77;0.70;;;;;;;;;;5055599;28;20056;-75
2021/04/24 00:38:51;;;;;;;2.17;0.90;;;;;;;;;;5055648;28;20401;-74
2021/04/24 00:41:16;;;;;;;1.63;0.80;;;;;;;;;;5055626;28;20051;-75
2021/04/24 00:43:42;;;;;;;1.70;0.80;;;;;;;;;;5072461;28;20538;-75
2021/04/24 00:46:09;;;;;;;1.50;0.87;;;;;;;;;;5055502;28;20123;-75
2021/04/24 00:48:35;;;;;;;2.03;0.80;;;;;;;;;;5038864;28;20376;-75
2021/04/24 00:51:00;;;;;;;2.00;1.00;;;;;;;;;;5055499;28;20038;-75
2021/04/24 00:53:25;;;;;;;1.73;0.90;;;;;;;;;;5055201;28;20094;-75
2021/04/24 00:55:51;;;;;;;1.27;0.70;;;;;;;;;;5055295;28;20036;-75
2021/04/24 00:58:16;;;;;;;1.53;0.80;;;;;;;;;;5055590;28;20060;-75
2021/04/24 01:00:41;;;;;;;1.57;0.70;;;;;;;;;;5072249;28;20060;-75
2021/04/24 01:03:07;;;;;;;2.03;0.80;;;;;;;;;;5055227;28;20505;-75
2021/04/24 01:05:34;;;;;;;2.40;0.90;;;;;;;;;;5072068;28;20140;-75
2021/04/24 01:08:00;;;;;;;2.05;0.90;;;;;;;;;;5038721;28;20035;-75
2021/04/24 01:10:28;;;;;;;1.93;0.87;;;;;;;;;;5072062;28;20028;-75
2021/04/24 01:12:53;;;;;;;2.70;0.90;;;;;;;;;;5038839;28;20025;-75
2021/04/24 01:15:18;;;;;;;1.83;0.70;;;;;;;;;;5072281;28;20090;-75
2021/04/24 01:17:44;;;;;;;1.40;0.70;;;;;;;;;;5055193;28;20085;-75
2021/04/24 01:20:10;;;;;;;1.37;0.80;;;;;;;;;;5055048;28;20082;-75
2021/04/24 01:22:35;;;;;;;1.63;0.80;;;;;;;;;;5055232;28;20027;-75
2021/04/24 01:25:06;;;;;;;1.33;0.73;;;;;;;;;;5071742;28;20048;-75
2021/04/24 01:27:32;;;;;;;1.42;0.80;;;;;;;;;;5055772;28;20035;-75
2021/04/24 01:29:57;;;;;;;2.03;0.90;;;;;;;;;;5071763;28;20048;-75
2021/04/24 01:32:23;;;;;;;2.53;0.80;;;;;;;;;;5054987;28;20063;-75
2021/04/24 01:34:48;;;;;;;1.50;0.80;;;;;;;;;;5071639;28;20128;-75
2021/04/24 01:37:13;;;;;;;1.57;0.70;;;;;;;;;;5071906;28;20032;-75
2021/04/24 01:39:39;;;;;;;1.70;0.80;;;;;;;;;;5055019;28;20119;-75
2021/04/24 01:42:05;;;;;;;1.30;0.70;;;;;;;;;;5054809;28;20036;-75
2021/04/24 01:44:30;;;;;;;1.93;0.90;;;;;;;;;;5054845;28;20048;-75
2021/04/24 01:46:55;;;;;;;1.87;0.77;;;;;;;;;;5054563;28;20083;-75
2021/04/24 01:49:21;;;;;;;2.83;0.73;;;;;;;;;;5072249;28;20067;-75
2021/04/24 01:51:46;;;;;;;1.87;0.80;;;;;;;;;;5054812;28;20119;-75
2021/04/24 01:54:11;;;;;;;1.60;0.63;;;;;;;;;;5071550;28;20071;-75
2021/04/24 01:56:52;;;;;;;1.27;0.80;;;;;;;;;;5054621;28;20050;-75
2021/04/24 01:59:18;;;;;;;1.45;0.80;;;;;;;;;;5055953;28;20174;-75
2021/04/24 02:01:47;;;;;;;1.83;0.70;;;;;;;;;;5071751;28;20086;-75
2021/04/24 02:04:13;;;;;;;1.73;0.65;;;;;;;;;;5055370;28;20436;-75
2021/04/24 02:06:38;;;;;;;1.60;0.67;;;;;;;;;;5075055;28;20098;-75
2021/04/24 02:09:07;;;;;;;1.13;0.63;;;;;;;;;;5058443;28;20039;-75
2021/04/24 02:11:32;;;;;;;1.45;0.70;;;;;;;;;;5042140;28;20025;-75
2021/04/24 02:13:57;;;;;;;1.47;0.80;;;;;;;;;;5058517;28;20064;-75
2021/04/24 02:16:23;;;;;;;1.27;0.73;;;;;;;;;;5074909;28;20115;-75
2021/04/24 02:18:48;;;;;;;2.30;0.80;;;;;;;;;;5058278;28;20517;-75
2021/04/24 02:21:14;;;;;;;2.23;1.07;;;;;;;;;;5074897;28;20466;-74
2021/04/24 02:23:39;;;;;;;1.17;0.70;;;;;;;;;;5058279;28;20064;-74
2021/04/24 02:26:06;;;;;;;1.13;0.70;;;;;;;;;;5058140;28;20040;-74
2021/04/24 02:28:31;;;;;;;1.63;0.70;;;;;;;;;;5058297;28;20510;-74
2021/04/24 02:30:56;;;;;;;1.97;0.70;;;;;;;;;;5058074;28;20025;-74
2021/04/24 02:33:22;;;;;;;1.67;0.80;;;;;;;;;;5058097;28;20715;-75
2021/04/24 02:35:49;;;;;;;1.77;0.73;;;;;;;;;;5058124;28;20037;-75
2021/04/24 02:38:17;;;;;;;1.95;0.80;;;;;;;;;;5041547;28;20507;-75
2021/04/24 02:40:42;;;;;;;1.40;0.80;;;;;;;;;;5058250;28;20404;-75
2021/04/24 02:43:08;;;;;;;1.97;0.83;;;;;;;;;;5074434;28;20021;-75
2021/04/24 02:45:33;;;;;;;1.17;0.70;;;;;;;;;;5074682;28;20028;-75
2021/04/24 02:47:58;;;;;;;2.03;0.80;;;;;;;;;;5057779;28;20529;-75
2021/04/24 02:50:24;;;;;;;2.07;0.90;;;;;;;;;;5057704;28;20060;-75
2021/04/24 02:52:49;;;;;;;1.47;0.80;;;;;;;;;;5091395;28;20025;-75
2021/04/24 02:55:15;;;;;;;1.20;0.70;;;;;;;;;;5057582;28;20135;-75
2021/04/24 02:57:41;;;;;;;1.65;0.77;;;;;;;;;;5057758;28;20040;-75
2021/04/24 03:00:07;;;;;;;1.57;0.80;;;;;;;;;;5041054;28;20441;-75
2021/04/24 03:02:32;;;;;;;1.58;0.70;;;;;;;;;;5040876;28;20043;-75
2021/04/24 03:04:58;;;;;;;1.00;0.60;;;;;;;;;;5057390;28;20477;-75
2021/04/24 03:07:23;;;;;;;2.07;0.80;;;;;;;;;;5057340;28;20063;-75
2021/04/24 03:09:48;;;;;;;1.73;0.80;;;;;;;;;;5074574;28;20068;-75
2021/04/24 03:12:14;;;;;;;2.90;0.80;;;;;;;;;;5074112;28;20108;-75
2021/04/24 03:14:39;;;;;;;2.60;0.80;;;;;;;;;;5057266;28;20075;-75
2021/04/24 03:17:04;;;;;;;1.97;0.80;;;;;;;;;;5056992;28;20097;-75
2021/04/24 03:19:30;;;;;;;1.83;0.93;;;;;;;;;;5057184;28;20416;-75
2021/04/24 03:21:55;;;;;;;1.47;0.73;;;;;;;;;;5074001;28;20044;-75
2021/04/24 03:24:20;;;;;;;1.47;0.73;;;;;;;;;;5057078;28;20543;-75
2021/04/24 03:26:46;;;;;;;1.23;0.70;;;;;;;;;;5056940;28;20468;-75
2021/04/24 03:29:11;;;;;;;1.20;0.60;;;;;;;;;;5073750;28;20033;-74
2021/04/24 03:31:36;;;;;;;1.90;0.70;;;;;;;;;;5056983;28;20064;-75
2021/04/24 03:34:02;;;;;;;1.40;0.70;;;;;;;;;;5073728;28;20035;-74
2021/04/24 03:36:27;;;;;;;1.30;0.60;;;;;;;;;;5073511;28;20391;-75
2021/04/24 03:38:53;;;;;;;2.00;0.80;;;;;;;;;;5056795;28;20119;-75
2021/04/24 03:41:18;;;;;;;1.13;0.60;;;;;;;;;;5056772;28;20082;-75
2021/04/24 03:43:44;;;;;;;1.83;0.93;;;;;;;;;;5073533;28;20079;-75
2021/04/24 03:46:09;;;;;;;2.30;0.80;;;;;;;;;;5056623;28;20071;-75
2021/04/24 03:48:34;;;;;;;1.33;0.70;;;;;;;;;;5056524;28;20064;-75
2021/04/24 03:51:00;;;;;;;1.33;0.70;;;;;;;;;;5073305;28;20032;-75
2021/04/24 03:53:25;;;;;;;0.97;0.67;;;;;;;;;;5073287;28;20064;-75
2021/04/24 03:55:51;;;;;;;1.20;0.60;;;;;;;;;;5073306;28;20047;-75
2021/04/24 03:58:16;;;;;;;2.30;0.80;;;;;;;;;;5073147;28;20029;-75
2021/04/24 04:00:42;;;;;;;1.60;0.70;;;;;;;;;;5056546;28;20102;-75
2021/04/24 04:03:08;;;;;;;1.50;0.70;;;;;;;;;;5056483;28;20475;-75
2021/04/24 04:05:37;;;;;;;1.85;0.88;;;;;;;;;;5039573;28;20533;-75
2021/04/24 04:08:04;;;;;;;1.40;0.70;;;;;;;;;;5040012;28;20043;-75
2021/04/24 04:10:30;;;;;;;2.10;0.90;;;;;;;;;;5038732;28;20400;-74
2021/04/24 04:12:55;;;;;;;3.07;0.80;;;;;;;;;;5068665;28;20025;-74
2021/04/24 04:15:21;;;;;;;1.73;0.80;;;;;;;;;;5068965;28;20056;-74
2021/04/24 04:18:08;;;;;;;2.47;0.90;;;;;;;;;;5035785;28;20032;-74
2021/04/24 04:20:34;;;;;;;1.48;0.70;;;;;;;;;;5070169;28;20040;-74
2021/04/24 04:23:00;;;;;;;1.02;0.70;;;;;;;;;;5051825;28;20025;-74
2021/04/24 04:25:25;;;;;;;1.00;0.70;;;;;;;;;;5068622;28;20087;-74
2021/04/24 04:27:51;;;;;;;1.73;0.77;;;;;;;;;;5068146;28;20093;-74
2021/04/24 04:30:17;;;;;;;1.50;0.80;;;;;;;;;;5035982;28;20040;-74
2021/04/24 04:32:43;;;;;;;1.33;0.80;;;;;;;;;;5052283;28;20107;-74
2021/04/24 04:35:09;;;;;;;2.38;0.77;;;;;;;;;;5051744;28;20033;-74
2021/04/24 04:37:34;;;;;;;1.83;0.70;;;;;;;;;;5030314;28;20490;-74
2021/04/24 04:39:59;;;;;;;1.20;0.77;;;;;;;;;;5043869;28;20055;-74
2021/04/24 04:42:25;;;;;;;1.20;0.70;;;;;;;;;;5058926;28;20060;-74
2021/04/24 04:44:51;;;;;;;1.70;0.70;;;;;;;;;;5072074;28;20035;-74
2021/04/24 04:47:16;;;;;;;1.40;0.60;;;;;;;;;;5084827;28;20040;-74
2021/04/24 04:49:41;;;;;;;2.00;0.80;;;;;;;;;;5068370;28;20037;-74
2021/04/24 04:52:07;;;;;;;2.30;0.90;;;;;;;;;;5068221;28;20064;-74
2021/04/24 04:54:32;;;;;;;1.23;0.70;;;;;;;;;;5051716;28;20402;-74
2021/04/24 04:56:57;;;;;;;1.00;0.60;;;;;;;;;;5051752;28;20067;-74
2021/04/24 04:59:23;;;;;;;2.10;0.63;;;;;;;;;;5069133;28;20056;-74
2021/04/24 05:01:48;;;;;;;1.23;0.63;;;;;;;;;;5068118;28;20119;-74
2021/04/24 05:04:13;;;;;;;1.57;0.70;;;;;;;;;;5085101;28;20150;-74
2021/04/24 05:06:39;;;;;;;1.63;0.80;;;;;;;;;;5085152;28;20060;-74
2021/04/24 05:09:04;;;;;;;1.10;0.70;;;;;;;;;;5064214;28;20413;-74
2021/04/24 05:11:30;;;;;;;1.97;0.80;;;;;;;;;;5087857;28;20040;-74
2021/04/24 05:13:55;;;;;;;1.53;0.80;;;;;;;;;;5088263;28;20115;-74
2021/04/24 05:16:20;;;;;;;1.57;0.80;;;;;;;;;;5088202;28;20115;-74
2021/04/24 05:18:46;;;;;;;1.40;0.70;;;;;;;;;;5088705;28;20502;-75
2021/04/24 05:21:11;;;;;;;1.47;0.70;;;;;;;;;;5071093;28;20454;-75
2021/04/24 05:23:36;;;;;;;1.30;0.60;;;;;;;;;;5087735;28;20028;-75
2021/04/24 05:26:02;;;;;;;1.43;0.80;;;;;;;;;;5087989;28;20042;-74
2021/04/24 05:28:27;;;;;;;1.27;0.73;;;;;;;;;;5088290;28;20509;-75
2021/04/24 05:30:52;;;;;;;1.00;0.60;;;;;;;;;;5088048;28;20028;-75
2021/04/24 05:33:18;;;;;;;2.23;0.90;;;;;;;;;;5087949;28;20109;-74
2021/04/24 05:35:43;;;;;;;1.30;0.60;;;;;;;;;;5087553;28;20067;-74
2021/04/24 05:38:08;;;;;;;1.80;0.90;;;;;;;;;;5088073;28;20083;-74
2021/04/24 05:40:34;;;;;;;1.87;0.70;;;;;;;;;;5092009;28;20078;-74
2021/04/24 05:42:59;;;;;;;1.43;0.83;;;;;;;;;;5091965;28;20111;-74
2021/04/24 05:45:25;;;;;;;1.63;0.60;;;;;;;;;;5092009;28;20207;-74
2021/04/24 05:47:51;;;;;;;1.52;0.70;;;;;;;;;;5091732;28;20495;-74
2021/04/24 05:50:21;;;;;;;1.63;0.80;;;;;;;;;;5075179;28;20043;-74
2021/04/24 05:52:46;;;;;;;2.00;0.75;;;;;;;;;;5075207;28;20129;-74
2021/04/24 05:55:12;;;;;;;1.50;0.70;;;;;;;;;;5091685;28;20530;-74
2021/04/24 05:57:38;;;;;;;1.58;0.70;;;;;;;;;;5062452;28;20044;-74
2021/04/24 06:00:14;;;;;;;1.37;0.70;;;;;;;;;;5054404;28;20395;-74
2021/04/24 06:02:40;;;;;;;1.30;0.60;;;;;;;;;;5054759;28;20028;-74
2021/04/24 06:05:07;;;;;;;0.97;0.73;;;;;;;;;;5054863;28;20132;-74
2021/04/24 06:10:04;;;;;;;1.40;0.77;;;;;;;;;;5072888;28;20094;-75
2021/04/24 06:12:30;;;;;;;1.98;0.70;;;;;;;;;;5041596;28;20131;-75
2021/04/24 06:14:55;;;;;;;1.73;0.87;;;;;;;;;;5041658;28;20166;-75
2021/04/24 06:17:20;;;;;;;1.13;0.70;;;;;;;;;;5074968;28;20048;-75
2021/04/24 06:19:46;;;;;;;1.17;0.70;;;;;;;;;;5074856;28;20124;-75
2021/04/24 06:22:11;;;;;;;1.10;0.60;;;;;;;;;;5058316;28;20487;-76
2021/04/24 06:24:36;;;;;;;1.17;0.80;;;;;;;;;;5075966;28;20072;-75
2021/04/24 06:27:02;;;;;;;1.53;0.80;;;;;;;;;;5076806;28;20064;-75
2021/04/24 06:29:27;;;;;;;1.27;0.80;;;;;;;;;;5058213;28;20045;-75
2021/04/24 06:31:52;;;;;;;1.17;0.80;;;;;;;;;;5041336;28;20115;-75
2021/04/24 06:34:18;;;;;;;1.30;0.80;;;;;;;;;;5058001;28;20060;-75
2021/04/24 06:36:43;;;;;;;1.80;0.80;;;;;;;;;;5057897;28;20060;-75
2021/04/24 06:39:08;;;;;;;1.70;0.67;;;;;;;;;;5075988;28;20060;-75
2021/04/24 06:41:34;;;;;;;1.03;0.60;;;;;;;;;;5074514;28;20028;-75
2021/04/24 06:44:00;;;;;;;1.87;0.80;;;;;;;;;;5057684;28;20127;-76
2021/04/24 06:46:25;;;;;;;1.50;0.73;;;;;;;;;;5057669;28;20032;-75
2021/04/24 06:48:50;;;;;;;2.23;0.70;;;;;;;;;;5057718;28;20402;-75
2021/04/24 06:51:16;;;;;;;2.40;0.70;;;;;;;;;;5075088;28;20064;-75
2021/04/24 06:53:41;;;;;;;1.33;0.73;;;;;;;;;;5075547;28;20075;-75
2021/04/24 06:56:07;;;;;;;1.70;0.70;;;;;;;;;;5074330;28;20498;-75
2021/04/24 06:58:32;;;;;;;2.40;0.70;;;;;;;;;;5057528;28;20403;-75
2021/04/24 07:00:57;;;;;;;1.73;0.83;;;;;;;;;;5057347;28;20502;-75
2021/04/24 07:03:23;;;;;;;1.17;0.77;;;;;;;;;;5075394;28;20060;-75
2021/04/24 07:05:48;;;;;;;1.60;0.70;;;;;;;;;;5057312;28;20127;-75
2021/04/24 07:08:13;;;;;;;1.47;0.73;;;;;;;;;;5057258;28;20040;-75
2021/04/24 07:10:39;;;;;;;0.93;0.70;;;;;;;;;;5057366;28;20064;-75
2021/04/24 07:13:04;;;;;;;1.80;0.80;;;;;;;;;;5057643;28;20059;-76
2021/04/24 07:15:30;;;;;;;1.37;0.80;;;;;;;;;;5075128;28;20040;-75
2021/04/24 07:17:55;;;;;;;1.23;0.63;;;;;;;;;;5075096;28;20455;-75
2021/04/24 07:20:20;;;;;;;1.83;0.77;;;;;;;;;;5057309;28;20517;-76
2021/04/24 07:22:46;;;;;;;2.03;0.90;;;;;;;;;;5073663;28;20525;-75
2021/04/24 07:25:12;;;;;;;1.70;0.73;;;;;;;;;;5057095;28;20490;-75
2021/04/24 07:27:37;;;;;;;1.73;0.70;;;;;;;;;;5056937;28;20028;-76
2021/04/24 07:30:04;;;;;;;1.50;0.70;;;;;;;;;;5073615;28;20112;-76
2021/04/24 07:32:30;;;;;;;1.25;0.70;;;;;;;;;;5056833;28;20506;-75
2021/04/24 07:34:55;;;;;;;0.90;0.67;;;;;;;;;;5074843;28;20060;-75
2021/04/24 07:37:20;;;;;;;1.03;0.60;;;;;;;;;;5074790;28;20064;-76
2021/04/24 07:39:46;;;;;;;1.73;0.77;;;;;;;;;;5073481;28;20094;-75
2021/04/24 07:42:13;;;;;;;2.47;0.60;;;;;;;;;;5056639;28;20052;-75
2021/04/24 07:44:38;;;;;;;1.10;0.65;;;;;;;;;;5056855;28;20067;-75
2021/04/24 07:47:04;;;;;;;1.53;0.70;;;;;;;;;;5056804;28;20091;-75
2021/04/24 07:49:29;;;;;;;1.10;0.70;;;;;;;;;;5056726;28;20032;-75
2021/04/24 07:51:55;;;;;;;1.60;0.80;;;;;;;;;;5056417;28;20041;-75
2021/04/24 07:54:20;;;;;;;1.00;0.60;;;;;;;;;;5074295;28;20074;-75
2021/04/24 07:56:45;;;;;;;1.30;0.77;;;;;;;;;;5056541;28;20067;-74
2021/04/24 07:59:11;;;;;;;1.60;0.70;;;;;;;;;;5056493;28;20044;-75
2021/04/24 08:01:37;;;;;;;1.10;0.70;;;;;;;;;;5056229;28;20032;-76
2021/04/24 08:04:03;;;;;;;1.30;0.70;;;;;;;;;;5073347;28;20036;-76
2021/04/24 08:06:29;;;;;;;1.67;0.90;;;;;;;;;;5056095;28;20028;-75
2021/04/24 08:08:54;;;;;;;2.40;0.83;;;;;;;;;;5056189;28;20095;-76
2021/04/24 08:11:19;;;;;;;1.20;0.70;;;;;;;;;;5073237;28;20052;-76
2021/04/24 08:13:45;;;;;;;1.70;0.80;;;;;;;;;;5056107;28;20109;-76
2021/04/24 08:16:12;;;;;;;1.13;0.70;;;;;;;;;;5056036;28;20521;-75
2021/04/24 08:18:37;;;;;;;1.52;0.70;;;;;;;;;;5072844;28;20526;-76
2021/04/24 08:21:03;;;;;;;1.50;0.80;;;;;;;;;;5056147;28;20075;-75
2021/04/24 08:23:28;;;;;;;1.50;0.70;;;;;;;;;;5056117;28;20090;-76
2021/04/24 08:25:53;;;;;;;1.40;0.80;;;;;;;;;;5055817;28;20068;-75
2021/04/24 08:28:19;;;;;;;1.20;0.80;;;;;;;;;;5055781;28;20084;-75
2021/04/24 08:30:44;;;;;;;2.03;1.00;;;;;;;;;;5072400;28;20118;-76
2021/04/24 08:33:09;;;;;;;2.43;0.70;;;;;;;;;;5072643;28;20060;-75
2021/04/24 08:35:35;;;;;;;1.60;1.00;;;;;;;;;;5055650;28;20043;-76
2021/04/24 08:38:01;;;;;;;2.20;1.00;;;;;;;;;;5055673;28;20033;-75
2021/04/24 08:40:27;;;;;;;1.57;0.90;;;;;;;;;;5038916;28;20407;-75
2021/04/24 08:42:52;;;;;;;2.67;0.97;;;;;;;;;;5055361;28;20032;-76
2021/04/24 08:45:18;;;;;;;2.00;0.80;;;;;;;;;;5056042;28;20083;-75
2021/04/24 08:47:46;;;;;;;2.75;0.93;;;;;;;;;;5055600;28;20032;-75
2021/04/24 08:50:13;;;;;;;2.30;1.15;;;;;;;;;;5055503;28;20032;-75
2021/04/24 08:52:39;;;;;;;2.10;1.10;;;;;;;;;;5073415;28;20020;-75
2021/04/24 08:55:04;;;;;;;1.85;0.88;;;;;;;;;;5071975;28;20043;-75
2021/04/24 08:57:30;;;;;;;2.07;0.97;;;;;;;;;;5055470;28;20029;-76
2021/04/24 08:59:55;;;;;;;3.80;1.30;;;;;;;;;;5055186;28;20032;-76
2021/04/24 09:02:20;;;;;;;2.93;1.20;;;;;;;;;;5073033;28;20479;-76
2021/04/24 09:04:46;;;;;;;1.63;0.90;;;;;;;;;;5073288;28;20497;-76
2021/04/24 09:07:11;;;;;;;2.50;1.13;;;;;;;;;;5071790;28;20604;-75
2021/04/24 09:09:39;;;;;;;3.00;1.27;;;;;;;;;;5055058;28;20075;-75
2021/04/24 09:12:04;;;;;;;2.35;1.15;;;;;;;;;;5071873;28;20079;-75
2021/04/24 09:14:30;;;;;;;2.73;1.03;;;;;;;;;;5054756;28;20036;-75
2021/04/24 09:16:55;;;;;;;2.97;1.00;;;;;;;;;;5054983;28;20036;-76
2021/04/24 09:19:35;;;;;;;2.40;1.20;;;;;;;;;;5071977;28;20111;-76
2021/04/24 09:22:20;;;;;;;2.45;1.20;;;;;;;;;;5054905;28;20036;-76
2021/04/24 09:24:55;;;;;;;2.65;1.25;;;;;;;;;;5054860;28;20060;-76
2021/04/24 09:27:48;;;;;;;3.45;1.20;;;;;;;;;;5071772;28;20071;-76
2021/04/24 09:30:20;;;;;;;1.80;0.98;;;;;;;;;;5071692;28;20028;-75
2021/04/24 09:32:47;;;;;;;3.20;1.10;;;;;;;;;;5054863;28;20395;-75
2021/04/24 09:35:14;;;;;;;;;;;;;;;;;;5072000;28;20028;-76
2021/04/24 09:37:39;;;;;;;2.88;1.02;;;;;;;;;;5071963;28;20325;-75
2021/04/24 09:40:09;;;;;;;3.93;1.10;;;;;;;;;;5071542;28;20031;-75
2021/04/24 09:42:39;;;;;;;2.83;1.30;;;;;;;;;;5072614;28;20028;-76
2021/04/24 09:45:20;;;;;;;2.83;1.20;;;;;;;;;;5038001;28;20044;-76
2021/04/24 09:47:45;;;;;;;2.28;1.20;;;;;;;;;;5073039;28;20028;-75
2021/04/24 09:50:23;;;;;;;2.40;1.17;;;;;;;;;;5054835;28;20395;-75
2021/04/24 09:52:48;;;;;;;3.42;1.08;;;;;;;;;;5038065;28;20119;-76
2021/04/24 09:55:35;;;;;;;3.23;1.30;;;;;;;;;;5054822;28;20099;-75
2021/04/24 09:58:02;;;;;;;2.50;1.08;;;;;;;;;;5071621;28;20037;-76
2021/04/24 10:00:28;;;;;;;2.60;1.25;;;;;;;;;;5054695;28;20099;-75
2021/04/24 10:02:53;;;;;;;1.87;1.10;;;;;;;;;;5054610;28;20096;-75
2021/04/24 10:05:19;;;;;;;4.47;1.53;;;;;;;;;;5071167;28;20060;-75
2021/04/24 10:07:55;;;;;;;3.25;1.40;;;;;;;;;;5071166;28;20078;-76
2021/04/24 10:10:23;;;;;;;3.78;1.55;;;;;;;;;;5037896;28;20032;-76
2021/04/24 10:12:59;;;;;;;3.53;1.52;;;;;;;;;;5072531;28;20029;-76
2021/04/24 10:15:35;;;;;;;3.50;1.73;;;;;;;;;;5037804;28;20032;-76
2021/04/24 10:18:00;;;;;;;5.82;1.63;;;;;;;;;;5054593;28;20060;-76
2021/04/24 10:20:26;;;;;;;3.60;1.67;;;;;;;;;;5072411;28;20099;-75
2021/04/24 10:22:51;;;;;;;4.87;1.90;;;;;;;;;;5054359;28;20032;-75
2021/04/24 10:25:17;;;;;;;5.90;2.07;;;;;;;;;;5054552;28;20036;-76
2021/04/24 10:27:42;;;;;;;4.97;1.80;;;;;;;;;;5041305;28;20399;-76
2021/04/24 10:30:08;;;;;;;3.83;1.80;;;;;;;;;;5058307;28;20040;-76
2021/04/24 10:32:33;;;;;;;4.47;1.77;;;;;;;;;;5058064;28;20029;-75
2021/04/24 10:34:59;;;;;;;5.20;1.83;;;;;;;;;;5058210;28;20036;-76
2021/04/24 10:37:24;;;;;;;3.93;2.10;;;;;;;;;;5058087;28;20040;-76
2021/04/24 10:39:49;;;;;;;4.63;1.90;;;;;;;;;;5057859;28;20037;-76
2021/04/24 10:42:20;;;;;;;3.93;2.00;;;;;;;;;;5058048;28;20119;-75
2021/04/24 10:44:56;;;;;;;4.22;1.70;;;;;;;;;;5057915;28;20116;-76
2021/04/24 10:47:41;;;;;;;3.67;1.80;;;;;;;;;;5057879;28;20032;-76
2021/04/24 10:50:14;;;;;;;4.05;1.70;;;;;;;;;;5058127;28;20025;-76
2021/04/24 10:52:42;;;;;;;4.57;1.90;;;;;;;;;;5057383;28;20556;-75
2021/04/24 10:55:16;;;;;;;3.13;1.40;;;;;;;;;;5041037;28;20463;-75
2021/04/24 10:57:54;;;;;;;3.88;2.08;;;;;;;;;;5057429;28;20514;-75
2021/04/24 11:00:22;;;;;;;6.30;1.88;;;;;;;;;;5074317;28;20121;-75
2021/04/24 11:02:57;;;;;;;4.88;1.98;;;;;;;;;;5075743;28;20224;-75
2021/04/24 11:05:40;;;;;;;4.10;1.80;;;;;;;;;;5074390;28;20399;-76
2021/04/24 11:08:19;;;;;;;3.88;1.80;;;;;;;;;;5057124;28;20051;-76
2021/04/24 11:11:02;;;;;;;3.88;1.63;;;;;;;;;;5057259;28;20036;-75
2021/04/24 11:13:39;;;;;;;3.85;1.67;;;;;;;;;;5057413;28;20036;-75
2021/04/24 11:16:06;;;;;;;3.75;1.70;;;;;;;;;;5075014;28;20028;-75
2021/04/24 11:18:32;;;;;;;3.50;1.55;;;;;;;;;;5057542;28;20028;-76
2021/04/24 11:20:58;;;;;;;4.53;1.80;;;;;;;;;;5057142;28;20040;-76
2021/04/24 11:23:33;;;;;;;3.10;1.40;;;;;;;;;;5075127;28;20114;-76
2021/04/24 11:25:59;;;;;;;3.67;1.73;;;;;;;;;;5074862;28;20119;-75
2021/04/24 11:28:24;;;;;;;3.77;1.70;;;;;;;;;;5074986;28;20479;-76
2021/04/24 11:30:55;;;;;;;3.17;1.43;;;;;;;;;;5040554;28;20036;-76
2021/04/24 11:33:49;;;;;;;3.63;1.60;;;;;;;;;;5073674;28;20020;-75
2021/04/24 11:38:55;;;;;;;3.00;1.60;;;;;;;;;;5074922;28;20182;-75
2021/04/24 11:41:30;;;;;;;3.30;1.48;;;;;;;;;;5074614;28;20037;-76
2021/04/24 11:43:56;;;;;;;4.15;1.52;;;;;;;;;;5073580;28;20032;-75
2021/04/24 11:46:35;;;;;;;3.28;1.60;;;;;;;;;;5056666;28;20036;-75
2021/04/24 11:49:07;;;;;;;3.50;1.42;;;;;;;;;;5039860;28;20086;-76
2021/04/24 11:51:37;;;;;;;3.55;1.60;;;;;;;;;;5074602;28;20032;-75
2021/04/24 11:54:04;;;;;;;3.85;1.58;;;;;;;;;;5073516;28;20486;-75
2021/04/24 11:56:29;;;;;;;4.13;1.80;;;;;;;;;;5056573;28;20078;-75
2021/04/24 11:58:55;;;;;;;3.77;1.70;;;;;;;;;;5056511;28;20037;-76
2021/04/24 12:01:23;;;;;;;3.00;1.40;;;;;;;;;;5073141;28;20029;-75
2021/04/24 12:03:52;;;;;;;3.42;1.55;;;;;;;;;;5056421;28;20490;-75
2021/04/24 12:06:38;;;;;;;4.22;1.50;;;;;;;;;;5039616;28;20377;-76
2021/04/24 12:09:05;;;;;;;3.15;1.50;;;;;;;;;;5074863;23;20410;-75
2021/04/24 12:11:30;;;;;;;8.48;2.25;;;;;;;;;;5059779;28;20035;-75
2021/04/24 12:13:56;;;;;;;5.10;2.50;;;;;;;;;;5042955;28;20034;-75
2021/04/24 12:16:45;;;;;;;6.28;2.42;;;;;;;;;;5030135;28;20119;-75
2021/04/24 12:19:21;;;;;;;8.02;2.30;;;;;;;;;;5064533;28;20028;-75
2021/04/24 12:21:47;;;;;;;6.80;2.42;;;;;;;;;;5075906;28;20032;-76
2021/04/24 12:24:12;;;;;;;16.17;3.10;;;;;;;;;;5059306;28;20482;-75
2021/04/24 12:26:37;;;;;;;6.90;2.40;;;;;;;;;;5076239;28;20067;-75
2021/04/24 12:29:03;;;;;;;3.77;1.77;;;;;;;;;;5075964;28;20122;-75
2021/04/24 12:31:29;;;;;;;5.23;1.97;;;;;;;;;;5040788;28;20033;-75
2021/04/24 12:33:55;;;;;;;6.47;1.75;;;;;;;;;;5039172;28;20090;-75
2021/04/24 12:36:20;;;;;;;8.20;2.00;;;;;;;;;;5055679;28;20044;-75
2021/04/24 12:38:46;;;;;;;5.20;1.93;;;;;;;;;;5055722;28;20064;-76
2021/04/24 12:41:12;;;;;;;4.93;1.77;;;;;;;;;;5039321;28;20040;-75
2021/04/24 12:43:38;;;;;;;;;;;;;;;;;;5056167;28;20028;-76
2021/04/24 12:46:08;;;;;;;5.50;1.80;;;;;;;;;;5055518;28;19909;-77
2021/04/24 12:48:39;;;;;;;5.20;1.90;;;;;;;;;;5055076;28;20039;-75
2021/04/24 12:51:10;;;;;;;4.78;1.98;;;;;;;;;;5055443;28;20037;-75
2021/04/24 12:53:40;;;;;;;5.35;2.08;;;;;;;;;;5055585;28;20032;-75
2021/04/24 12:56:25;;;;;;;3.58;1.65;;;;;;;;;;5055706;28;20055;-76
2021/04/24 12:58:54;;;;;;;4.68;1.70;;;;;;;;;;5038905;28;20028;-75
2021/04/24 13:01:26;;;;;;;4.80;1.88;;;;;;;;;;5039325;28;20036;-75
2021/04/24 13:03:54;;;;;;;3.33;1.60;;;;;;;;;;5055230;28;20395;-75
2021/04/24 13:06:22;;;;;;;16.00;2.90;;;;;;;;;;5039030;28;20033;-75
2021/04/24 13:09:00;;;;;;;7.07;2.00;;;;;;;;;;5038745;28;20123;-74
2021/04/24 13:11:26;;;;;;;6.05;1.80;;;;;;;;;;5038606;28;20033;-74
2021/04/24 13:14:06;;;;;;;5.13;1.80;;;;;;;;;;5060998;28;20118;-74
2021/04/24 13:16:31;;;;;;;4.40;1.75;;;;;;;;;;5075490;28;20406;-74
2021/04/24 13:18:57;;;;;;;3.47;1.60;;;;;;;;;;5075447;28;20112;-74
2021/04/24 13:21:26;;;;;;;7.47;1.70;;;;;;;;;;5075194;28;20032;-74
2021/04/24 13:24:02;;;;;;;4.18;1.48;;;;;;;;;;5092139;28;20082;-74
2021/04/24 13:26:28;;;;;;;3.65;1.75;;;;;;;;;;5075179;28;20032;-75
2021/04/24 13:28:53;;;;;;;5.77;1.90;;;;;;;;;;5075361;28;20035;-74
2021/04/24 13:31:18;;;;;;;3.33;1.53;;;;;;;;;;5075141;28;20080;-74
2021/04/24 13:33:44;;;;;;;3.13;1.50;;;;;;;;;;5075134;28;20107;-74
2021/04/24 13:36:09;;;;;;;8.73;1.67;;;;;;;;;;5075051;28;20072;-74
2021/04/24 13:38:35;;;;;;;3.47;1.57;;;;;;;;;;5074994;28;20113;-75
2021/04/24 13:41:14;;;;;;;4.50;1.58;;;;;;;;;;5075292;28;20101;-74
2021/04/24 13:43:39;;;;;;;4.70;1.60;;;;;;;;;;5058009;28;20035;-74
2021/04/24 13:46:21;;;;;;;3.50;1.30;;;;;;;;;;5058132;28;20032;-74
2021/04/24 13:48:46;;;;;;;3.53;1.60;;;;;;;;;;5074823;28;20032;-75
2021/04/24 13:51:12;;;;;;;4.43;1.83;;;;;;;;;;5074880;28;20032;-75
2021/04/24 13:53:37;;;;;;;3.00;1.30;;;;;;;;;;5091956;28;20403;-75
2021/04/24 13:56:03;;;;;;;5.50;1.70;;;;;;;;;;5074773;28;20119;-74
2021/04/24 13:58:28;;;;;;;4.00;1.20;;;;;;;;;;5074854;28;20403;-74
2021/04/24 14:00:53;;;;;;;2.93;1.43;;;;;;;;;;5059075;28;20032;-74
2021/04/24 14:03:19;;;;;;;2.97;1.37;;;;;;;;;;5078726;28;20063;-74
2021/04/24 14:05:44;;;;;;;3.50;1.37;;;;;;;;;;5078836;28;20105;-74
2021/04/24 14:08:09;;;;;;;5.00;1.50;;;;;;;;;;5061856;28;20070;-74
2021/04/24 14:10:35;;;;;;;2.83;1.30;;;;;;;;;;5078568;28;20036;-74
2021/04/24 14:13:02;;;;;;;5.07;1.40;;;;;;;;;;5078646;28;20136;-74
2021/04/24 14:15:27;;;;;;;3.53;1.30;;;;;;;;;;5062070;28;20032;-74
2021/04/24 14:17:52;;;;;;;3.47;1.40;;;;;;;;;;5078617;28;20113;-74
2021/04/24 14:20:18;;;;;;;2.60;1.30;;;;;;;;;;5061763;28;20056;-74
2021/04/24 14:22:44;;;;;;;3.03;1.70;;;;;;;;;;5078216;28;20063;-74
2021/04/24 14:25:10;;;;;;;5.23;1.53;;;;;;;;;;5078548;28;20032;-76
2021/04/24 14:27:36;;;;;;;4.20;1.50;;;;;;;;;;5078419;28;20342;-75
2021/04/24 14:30:01;;;;;;;3.70;1.35;;;;;;;;;;5061578;28;20486;-74
2021/04/24 14:32:27;;;;;;;2.93;1.20;;;;;;;;;;5078182;28;20062;-74
2021/04/24 14:34:52;;;;;;;4.20;1.30;;;;;;;;;;5078029;28;20490;-75
2021/04/24 14:37:17;;;;;;;3.07;1.40;;;;;;;;;;5077989;28;20467;-75
2021/04/24 14:39:43;;;;;;;5.10;1.80;;;;;;;;;;5078161;28;20056;-75
2021/04/24 14:42:09;;;;;;;5.77;2.33;;;;;;;;;;5078016;28;20036;-75
2021/04/24 14:44:34;;;;;;;4.63;2.05;;;;;;;;;;5061250;28;20028;-75
2021/04/24 14:47:00;;;;;;;6.20;2.60;;;;;;;;;;5061130;28;20502;-75